sensor_id;sensor_type;location;lat;lon;timestamp;P1;durP1;ratioP1;P2;durP2;ratioP2
41229;SDS011;26964;50.428;19.218;2023-04-01T00:00:35;14.5;;;8.7;;
41229;SDS011;26964;50.428;19.218;2023-04-01T00:01:35;13.7;;;9.4;;
41229;SDS011;26964;50.428;19.218;2023-04-01T00:02:35;15.1;;;8.9;;
41229;SDS011;26964;50.428;19.218;2023-04-01T00:03:35;13.7;;;8.6;;
41229;SDS011;26964;50.428;19.218;2023-04-01T00:04:35;12.3;;;7.8;;
41229;SDS011;26964;50.428;19.218;2023-04-01T00:05:35;15.1;;;8.2;;
41229;SDS011;26964;50.428;19.218;2023-04-01T00:06:35;12.5;;;7.7;;
41229;SDS011;26964;50.428;19.218;2023-04-01T00:07:35;16.6;;;9.6;;
41229;SDS011;26964;50.428;19.218;2023-04-01T00:08:35;18.3;;;9.3;;
41229;SDS011;26964;50.428;19.218;2023-04-01T00:09:35;12.6;;;8.9;;
41229;SDS011;26964;50.428;19.218;2023-04-01T00:10:35;15.4;;;9.1;;
41229;SDS011;26964;50.428;19.218;2023-04-01T00:11:35;14.5;;;8.3;;
41229;SDS011;26964;50.428;19.218;2023-04-01T00:12:35;15.3;;;7.9;;
41229;SDS011;26964;50.428;19.218;2023-04-01T00:13:35;13.3;;;8.9;;
41229;SDS011;26964;50.428;19.218;2023-04-01T00:14:35;10.6;;;6.9;;
41229;SDS011;26964;50.428;19.218;2023-04-01T00:15:35;13.1;;;6.9;;
41229;SDS011;26964;50.428;19.218;2023-04-01T00:16:35;13.0;;;7.2;;
41229;SDS011;26964;50.428;19.218;2023-04-01T00:17:35;11.4;;;5.9;;
41229;SDS011;26964;50.428;19.218;2023-04-01T00:18:35;11.9;;;6.6;;
41229;SDS011;26964;50.428;19.218;2023-04-01T00:19:35;11.9;;;7.2;;
41229;SDS011;26964;50.428;19.218;2023-04-01T00:20:35;10.7;;;6.3;;
41229;SDS011;26964;50.428;19.218;2023-04-01T00:21:35;11.5;;;7.0;;
41229;SDS011;26964;50.428;19.218;2023-04-01T00:22:35;14.4;;;7.7;;
41229;SDS011;26964;50.428;19.218;2023-04-01T00:23:35;12.8;;;6.7;;
41229;SDS011;26964;50.428;19.218;2023-04-01T00:24:35;17.7;;;11.5;;
41229;SDS011;26964;50.428;19.218;2023-04-01T00:25:35;16.8;;;8.0;;
41229;SDS011;26964;50.428;19.218;2023-04-01T00:26:35;23.5;;;12.0;;
41229;SDS011;26964;50.428;19.218;2023-04-01T00:27:35;30.9;;;16.6;;
41229;SDS011;26964;50.428;19.218;2023-04-01T00:28:35;18.9;;;11.3;;
41229;SDS011;26964;50.428;19.218;2023-04-01T00:29:35;16.1;;;9.5;;
41229;SDS011;26964;50.428;19.218;2023-04-01T00:30:35;21.4;;;12.7;;
41229;SDS011;26964;50.428;19.218;2023-04-01T00:31:35;20.6;;;12.0;;
41229;SDS011;26964;50.428;19.218;2023-04-01T00:32:35;21.0;;;12.6;;
41229;SDS011;26964;50.428;19.218;2023-04-01T00:33:35;20.1;;;10.6;;
41229;SDS011;26964;50.428;19.218;2023-04-01T00:34:35;16.2;;;9.2;;
41229;SDS011;26964;50.428;19.218;2023-04-01T00:35:35;16.3;;;9.7;;
41229;SDS011;26964;50.428;19.218;2023-04-01T00:36:35;16.9;;;9.9;;
41229;SDS011;26964;50.428;19.218;2023-04-01T00:37:35;17.5;;;11.2;;
41229;SDS011;26964;50.428;19.218;2023-04-01T00:38:35;18.1;;;10.3;;
41229;SDS011;26964;50.428;19.218;2023-04-01T00:39:35;15.5;;;9.0;;
41229;SDS011;26964;50.428;19.218;2023-04-01T00:40:35;21.5;;;11.5;;
41229;SDS011;26964;50.428;19.218;2023-04-01T00:41:35;37.2;;;17.7;;
41229;SDS011;26964;50.428;19.218;2023-04-01T00:42:35;34.4;;;18.1;;
41229;SDS011;26964;50.428;19.218;2023-04-01T00:43:35;19.1;;;12.0;;
41229;SDS011;26964;50.428;19.218;2023-04-01T00:44:36;18.0;;;10.5;;
41229;SDS011;26964;50.428;19.218;2023-04-01T00:45:35;16.4;;;10.7;;
41229;SDS011;26964;50.428;19.218;2023-04-01T00:46:35;16.4;;;9.4;;
41229;SDS011;26964;50.428;19.218;2023-04-01T00:47:35;34.3;;;19.4;;
41229;SDS011;26964;50.428;19.218;2023-04-01T00:48:35;22.1;;;12.8;;
41229;SDS011;26964;50.428;19.218;2023-04-01T00:49:36;14.8;;;8.9;;
41229;SDS011;26964;50.428;19.218;2023-04-01T00:50:35;31.1;;;17.0;;
41229;SDS011;26964;50.428;19.218;2023-04-01T00:51:35;15.8;;;8.6;;
41229;SDS011;26964;50.428;19.218;2023-04-01T00:52:35;13.3;;;8.2;;
41229;SDS011;26964;50.428;19.218;2023-04-01T00:53:36;12.3;;;7.2;;
41229;SDS011;26964;50.428;19.218;2023-04-01T00:54:35;18.3;;;10.1;;
41229;SDS011;26964;50.428;19.218;2023-04-01T00:55:35;19.2;;;10.8;;
41229;SDS011;26964;50.428;19.218;2023-04-01T00:56:35;19.2;;;10.2;;
41229;SDS011;26964;50.428;19.218;2023-04-01T00:57:35;14.7;;;8.6;;
41229;SDS011;26964;50.428;19.218;2023-04-01T00:58:35;13.5;;;7.6;;
41229;SDS011;26964;50.428;19.218;2023-04-01T00:59:35;13.7;;;7.7;;
41229;SDS011;26964;50.428;19.218;2023-04-01T01:00:35;13.8;;;7.2;;
41229;SDS011;26964;50.428;19.218;2023-04-01T01:01:35;14.1;;;7.5;;
41229;SDS011;26964;50.428;19.218;2023-04-01T01:02:35;14.1;;;7.6;;
41229;SDS011;26964;50.428;19.218;2023-04-01T01:03:35;12.3;;;7.0;;
41229;SDS011;26964;50.428;19.218;2023-04-01T01:04:35;13.0;;;6.7;;
41229;SDS011;26964;50.428;19.218;2023-04-01T01:07:36;10.6;;;7.1;;
41229;SDS011;26964;50.428;19.218;2023-04-01T01:10:35;12.7;;;9.5;;
41229;SDS011;26964;50.428;19.218;2023-04-01T01:11:36;16.2;;;11.7;;
41229;SDS011;26964;50.428;19.218;2023-04-01T01:12:35;14.2;;;10.1;;
41229;SDS011;26964;50.428;19.218;2023-04-01T01:13:36;21.4;;;15.9;;
41229;SDS011;26964;50.428;19.218;2023-04-01T01:14:37;19.7;;;14.2;;
41229;SDS011;26964;50.428;19.218;2023-04-01T01:15:36;19.9;;;13.7;;
41229;SDS011;26964;50.428;19.218;2023-04-01T01:16:36;30.2;;;21.8;;
41229;SDS011;26964;50.428;19.218;2023-04-01T01:17:37;23.2;;;16.1;;
41229;SDS011;26964;50.428;19.218;2023-04-01T01:18:35;19.1;;;10.2;;
41229;SDS011;26964;50.428;19.218;2023-04-01T01:22:36;16.7;;;8.9;;
41229;SDS011;26964;50.428;19.218;2023-04-01T01:27:35;14.5;;;10.2;;
41229;SDS011;26964;50.428;19.218;2023-04-01T01:28:36;16.3;;;9.6;;
41229;SDS011;26964;50.428;19.218;2023-04-01T01:30:36;13.0;;;8.4;;
41229;SDS011;26964;50.428;19.218;2023-04-01T01:31:36;13.5;;;8.3;;
41229;SDS011;26964;50.428;19.218;2023-04-01T01:33:38;12.2;;;8.1;;
41229;SDS011;26964;50.428;19.218;2023-04-01T01:34:40;14.4;;;8.1;;
41229;SDS011;26964;50.428;19.218;2023-04-01T01:35:35;15.2;;;8.1;;
41229;SDS011;26964;50.428;19.218;2023-04-01T01:36:34;12.6;;;7.9;;
41229;SDS011;26964;50.428;19.218;2023-04-01T01:37:35;13.2;;;8.0;;
41229;SDS011;26964;50.428;19.218;2023-04-01T01:38:35;12.7;;;7.8;;
41229;SDS011;26964;50.428;19.218;2023-04-01T01:39:35;15.1;;;8.2;;
41229;SDS011;26964;50.428;19.218;2023-04-01T01:40:34;13.0;;;8.3;;
41229;SDS011;26964;50.428;19.218;2023-04-01T01:41:35;15.0;;;8.4;;
41229;SDS011;26964;50.428;19.218;2023-04-01T01:42:35;13.3;;;8.3;;
41229;SDS011;26964;50.428;19.218;2023-04-01T01:43:35;12.6;;;7.7;;
41229;SDS011;26964;50.428;19.218;2023-04-01T01:44:35;13.1;;;8.0;;
41229;SDS011;26964;50.428;19.218;2023-04-01T01:45:35;15.4;;;9.5;;
41229;SDS011;26964;50.428;19.218;2023-04-01T01:46:35;15.4;;;9.1;;
41229;SDS011;26964;50.428;19.218;2023-04-01T01:47:34;14.1;;;8.5;;
41229;SDS011;26964;50.428;19.218;2023-04-01T01:48:34;14.7;;;9.2;;
41229;SDS011;26964;50.428;19.218;2023-04-01T01:49:35;14.7;;;8.9;;
41229;SDS011;26964;50.428;19.218;2023-04-01T01:50:35;16.4;;;9.4;;
41229;SDS011;26964;50.428;19.218;2023-04-01T01:51:34;17.6;;;9.2;;
41229;SDS011;26964;50.428;19.218;2023-04-01T01:52:35;13.6;;;8.7;;
41229;SDS011;26964;50.428;19.218;2023-04-01T01:53:35;14.2;;;9.1;;
41229;SDS011;26964;50.428;19.218;2023-04-01T01:54:35;22.0;;;9.8;;
41229;SDS011;26964;50.428;19.218;2023-04-01T01:55:35;15.2;;;9.5;;
41229;SDS011;26964;50.428;19.218;2023-04-01T01:56:34;14.7;;;9.2;;
41229;SDS011;26964;50.428;19.218;2023-04-01T01:57:36;16.4;;;9.8;;
41229;SDS011;26964;50.428;19.218;2023-04-01T01:58:35;16.2;;;9.8;;
41229;SDS011;26964;50.428;19.218;2023-04-01T01:59:35;14.9;;;9.7;;
41229;SDS011;26964;50.428;19.218;2023-04-01T02:00:35;16.1;;;9.4;;
41229;SDS011;26964;50.428;19.218;2023-04-01T02:01:35;17.0;;;9.8;;
41229;SDS011;26964;50.428;19.218;2023-04-01T02:02:34;16.2;;;9.7;;
41229;SDS011;26964;50.428;19.218;2023-04-01T02:03:35;17.6;;;9.9;;
41229;SDS011;26964;50.428;19.218;2023-04-01T02:04:35;14.4;;;9.2;;
41229;SDS011;26964;50.428;19.218;2023-04-01T02:05:34;16.0;;;10.0;;
41229;SDS011;26964;50.428;19.218;2023-04-01T02:06:35;17.2;;;9.5;;
41229;SDS011;26964;50.428;19.218;2023-04-01T02:07:34;15.4;;;9.5;;
41229;SDS011;26964;50.428;19.218;2023-04-01T02:08:35;14.3;;;9.6;;
41229;SDS011;26964;50.428;19.218;2023-04-01T02:09:34;18.9;;;10.4;;
41229;SDS011;26964;50.428;19.218;2023-04-01T02:10:35;17.4;;;9.9;;
41229;SDS011;26964;50.428;19.218;2023-04-01T02:11:36;13.8;;;9.1;;
41229;SDS011;26964;50.428;19.218;2023-04-01T02:12:34;17.5;;;9.9;;
41229;SDS011;26964;50.428;19.218;2023-04-01T02:13:35;14.0;;;10.0;;
41229;SDS011;26964;50.428;19.218;2023-04-01T02:14:36;15.5;;;10.0;;
41229;SDS011;26964;50.428;19.218;2023-04-01T02:15:35;19.5;;;10.3;;
41229;SDS011;26964;50.428;19.218;2023-04-01T02:16:36;16.4;;;10.0;;
41229;SDS011;26964;50.428;19.218;2023-04-01T02:17:34;13.9;;;10.1;;
41229;SDS011;26964;50.428;19.218;2023-04-01T02:18:35;17.1;;;10.2;;
41229;SDS011;26964;50.428;19.218;2023-04-01T02:19:36;14.1;;;9.5;;
41229;SDS011;26964;50.428;19.218;2023-04-01T02:20:34;13.3;;;9.5;;
41229;SDS011;26964;50.428;19.218;2023-04-01T02:21:35;13.4;;;8.9;;
41229;SDS011;26964;50.428;19.218;2023-04-01T02:22:35;14.2;;;8.8;;
41229;SDS011;26964;50.428;19.218;2023-04-01T02:23:35;13.7;;;8.7;;
41229;SDS011;26964;50.428;19.218;2023-04-01T02:24:35;15.7;;;9.4;;
41229;SDS011;26964;50.428;19.218;2023-04-01T02:25:35;13.3;;;8.5;;
41229;SDS011;26964;50.428;19.218;2023-04-01T02:26:34;17.0;;;9.6;;
41229;SDS011;26964;50.428;19.218;2023-04-01T02:27:34;14.8;;;8.7;;
41229;SDS011;26964;50.428;19.218;2023-04-01T02:28:35;16.9;;;9.2;;
41229;SDS011;26964;50.428;19.218;2023-04-01T02:29:34;14.5;;;9.2;;
41229;SDS011;26964;50.428;19.218;2023-04-01T02:30:35;13.5;;;9.1;;
41229;SDS011;26964;50.428;19.218;2023-04-01T02:31:34;13.3;;;9.0;;
41229;SDS011;26964;50.428;19.218;2023-04-01T02:32:34;14.9;;;9.0;;
41229;SDS011;26964;50.428;19.218;2023-04-01T02:33:34;14.7;;;9.4;;
41229;SDS011;26964;50.428;19.218;2023-04-01T02:34:34;13.6;;;8.9;;
41229;SDS011;26964;50.428;19.218;2023-04-01T02:35:35;13.4;;;9.4;;
41229;SDS011;26964;50.428;19.218;2023-04-01T02:36:35;14.4;;;9.1;;
41229;SDS011;26964;50.428;19.218;2023-04-01T02:37:34;18.0;;;9.8;;
41229;SDS011;26964;50.428;19.218;2023-04-01T02:38:35;14.8;;;9.5;;
41229;SDS011;26964;50.428;19.218;2023-04-01T02:39:34;14.3;;;9.2;;
41229;SDS011;26964;50.428;19.218;2023-04-01T02:42:34;16.8;;;11.4;;
41229;SDS011;26964;50.428;19.218;2023-04-01T02:43:34;14.1;;;9.2;;
41229;SDS011;26964;50.428;19.218;2023-04-01T02:44:34;16.1;;;9.5;;
41229;SDS011;26964;50.428;19.218;2023-04-01T02:45:34;16.5;;;9.6;;
41229;SDS011;26964;50.428;19.218;2023-04-01T02:46:34;15.5;;;10.0;;
41229;SDS011;26964;50.428;19.218;2023-04-01T02:47:35;19.1;;;10.7;;
41229;SDS011;26964;50.428;19.218;2023-04-01T02:48:34;16.2;;;10.7;;
41229;SDS011;26964;50.428;19.218;2023-04-01T02:49:34;14.8;;;10.1;;
41229;SDS011;26964;50.428;19.218;2023-04-01T02:50:34;16.4;;;9.9;;
41229;SDS011;26964;50.428;19.218;2023-04-01T02:51:35;17.5;;;10.4;;
41229;SDS011;26964;50.428;19.218;2023-04-01T02:52:34;15.1;;;10.3;;
41229;SDS011;26964;50.428;19.218;2023-04-01T02:53:34;16.5;;;11.0;;
41229;SDS011;26964;50.428;19.218;2023-04-01T02:54:34;15.8;;;10.6;;
41229;SDS011;26964;50.428;19.218;2023-04-01T02:55:34;16.4;;;11.0;;
41229;SDS011;26964;50.428;19.218;2023-04-01T02:56:34;17.8;;;10.3;;
41229;SDS011;26964;50.428;19.218;2023-04-01T02:57:34;17.0;;;10.4;;
41229;SDS011;26964;50.428;19.218;2023-04-01T02:58:34;15.2;;;11.0;;
41229;SDS011;26964;50.428;19.218;2023-04-01T02:59:34;15.3;;;11.1;;
41229;SDS011;26964;50.428;19.218;2023-04-01T03:00:34;16.2;;;11.1;;
41229;SDS011;26964;50.428;19.218;2023-04-01T03:01:34;18.4;;;11.8;;
41229;SDS011;26964;50.428;19.218;2023-04-01T03:02:34;17.1;;;11.9;;
41229;SDS011;26964;50.428;19.218;2023-04-01T03:03:34;16.2;;;11.7;;
41229;SDS011;26964;50.428;19.218;2023-04-01T03:04:34;17.5;;;12.1;;
41229;SDS011;26964;50.428;19.218;2023-04-01T03:05:34;17.6;;;12.2;;
41229;SDS011;26964;50.428;19.218;2023-04-01T03:06:34;19.4;;;12.3;;
41229;SDS011;26964;50.428;19.218;2023-04-01T03:07:34;15.9;;;12.3;;
41229;SDS011;26964;50.428;19.218;2023-04-01T03:08:34;17.4;;;13.1;;
41229;SDS011;26964;50.428;19.218;2023-04-01T03:09:35;17.3;;;12.9;;
41229;SDS011;26964;50.428;19.218;2023-04-01T03:10:34;19.6;;;13.8;;
41229;SDS011;26964;50.428;19.218;2023-04-01T03:11:34;20.5;;;14.3;;
41229;SDS011;26964;50.428;19.218;2023-04-01T03:12:34;18.6;;;14.3;;
41229;SDS011;26964;50.428;19.218;2023-04-01T03:13:34;20.7;;;16.0;;
41229;SDS011;26964;50.428;19.218;2023-04-01T03:14:34;20.1;;;14.5;;
41229;SDS011;26964;50.428;19.218;2023-04-01T03:15:34;21.2;;;15.8;;
41229;SDS011;26964;50.428;19.218;2023-04-01T03:16:34;24.5;;;17.6;;
41229;SDS011;26964;50.428;19.218;2023-04-01T03:17:34;23.3;;;17.2;;
41229;SDS011;26964;50.428;19.218;2023-04-01T03:18:34;24.7;;;18.2;;
41229;SDS011;26964;50.428;19.218;2023-04-01T03:19:34;23.4;;;18.6;;
41229;SDS011;26964;50.428;19.218;2023-04-01T03:20:35;29.8;;;19.9;;
41229;SDS011;26964;50.428;19.218;2023-04-01T03:21:34;29.0;;;21.7;;
41229;SDS011;26964;50.428;19.218;2023-04-01T03:22:34;27.1;;;20.8;;
41229;SDS011;26964;50.428;19.218;2023-04-01T03:23:34;30.3;;;21.6;;
41229;SDS011;26964;50.428;19.218;2023-04-01T03:24:34;29.0;;;21.3;;
41229;SDS011;26964;50.428;19.218;2023-04-01T03:25:34;30.6;;;22.0;;
41229;SDS011;26964;50.428;19.218;2023-04-01T03:26:34;30.4;;;22.5;;
41229;SDS011;26964;50.428;19.218;2023-04-01T03:27:34;29.2;;;22.5;;
41229;SDS011;26964;50.428;19.218;2023-04-01T03:28:34;28.9;;;21.2;;
41229;SDS011;26964;50.428;19.218;2023-04-01T03:29:34;27.2;;;21.6;;
41229;SDS011;26964;50.428;19.218;2023-04-01T03:30:34;33.1;;;23.0;;
41229;SDS011;26964;50.428;19.218;2023-04-01T03:31:34;29.8;;;22.0;;
41229;SDS011;26964;50.428;19.218;2023-04-01T03:32:34;31.6;;;22.8;;
41229;SDS011;26964;50.428;19.218;2023-04-01T03:33:34;32.4;;;23.0;;
41229;SDS011;26964;50.428;19.218;2023-04-01T03:34:34;32.9;;;22.7;;
41229;SDS011;26964;50.428;19.218;2023-04-01T03:35:34;30.3;;;22.2;;
41229;SDS011;26964;50.428;19.218;2023-04-01T03:36:34;30.4;;;21.5;;
41229;SDS011;26964;50.428;19.218;2023-04-01T03:37:34;28.3;;;20.1;;
41229;SDS011;26964;50.428;19.218;2023-04-01T03:38:34;26.3;;;20.5;;
41229;SDS011;26964;50.428;19.218;2023-04-01T03:39:34;28.8;;;21.0;;
41229;SDS011;26964;50.428;19.218;2023-04-01T03:40:34;24.4;;;18.7;;
41229;SDS011;26964;50.428;19.218;2023-04-01T03:41:35;28.7;;;19.6;;
41229;SDS011;26964;50.428;19.218;2023-04-01T03:42:34;28.6;;;18.9;;
41229;SDS011;26964;50.428;19.218;2023-04-01T03:43:34;26.2;;;18.9;;
41229;SDS011;26964;50.428;19.218;2023-04-01T03:44:34;26.5;;;18.6;;
41229;SDS011;26964;50.428;19.218;2023-04-01T03:45:34;27.4;;;18.9;;
41229;SDS011;26964;50.428;19.218;2023-04-01T03:46:34;27.0;;;19.2;;
41229;SDS011;26964;50.428;19.218;2023-04-01T03:47:34;28.2;;;18.6;;
41229;SDS011;26964;50.428;19.218;2023-04-01T03:48:34;25.7;;;18.9;;
41229;SDS011;26964;50.428;19.218;2023-04-01T03:49:34;28.0;;;19.2;;
41229;SDS011;26964;50.428;19.218;2023-04-01T03:50:34;27.4;;;18.9;;
41229;SDS011;26964;50.428;19.218;2023-04-01T03:51:34;28.6;;;19.6;;
41229;SDS011;26964;50.428;19.218;2023-04-01T03:52:34;26.0;;;18.3;;
41229;SDS011;26964;50.428;19.218;2023-04-01T03:53:34;26.8;;;19.2;;
41229;SDS011;26964;50.428;19.218;2023-04-01T03:54:34;26.3;;;19.8;;
41229;SDS011;26964;50.428;19.218;2023-04-01T03:55:35;30.2;;;21.0;;
41229;SDS011;26964;50.428;19.218;2023-04-01T03:56:34;27.3;;;19.5;;
41229;SDS011;26964;50.428;19.218;2023-04-01T03:57:34;30.9;;;22.5;;
41229;SDS011;26964;50.428;19.218;2023-04-01T03:58:34;32.0;;;22.1;;
41229;SDS011;26964;50.428;19.218;2023-04-01T03:59:34;30.0;;;20.8;;
41229;SDS011;26964;50.428;19.218;2023-04-01T04:00:34;29.9;;;19.6;;
41229;SDS011;26964;50.428;19.218;2023-04-01T04:01:34;32.0;;;21.7;;
41229;SDS011;26964;50.428;19.218;2023-04-01T04:02:34;30.4;;;20.2;;
41229;SDS011;26964;50.428;19.218;2023-04-01T04:03:34;33.4;;;22.1;;
41229;SDS011;26964;50.428;19.218;2023-04-01T04:04:34;33.7;;;21.4;;
41229;SDS011;26964;50.428;19.218;2023-04-01T04:05:34;36.3;;;23.5;;
41229;SDS011;26964;50.428;19.218;2023-04-01T04:06:34;34.5;;;23.4;;
41229;SDS011;26964;50.428;19.218;2023-04-01T04:07:34;34.2;;;22.5;;
41229;SDS011;26964;50.428;19.218;2023-04-01T04:08:34;32.0;;;23.1;;
41229;SDS011;26964;50.428;19.218;2023-04-01T04:09:34;37.6;;;22.6;;
41229;SDS011;26964;50.428;19.218;2023-04-01T04:10:34;35.0;;;22.8;;
41229;SDS011;26964;50.428;19.218;2023-04-01T04:11:34;37.6;;;24.4;;
41229;SDS011;26964;50.428;19.218;2023-04-01T04:12:34;31.6;;;23.2;;
41229;SDS011;26964;50.428;19.218;2023-04-01T04:13:34;33.3;;;22.4;;
41229;SDS011;26964;50.428;19.218;2023-04-01T04:14:34;28.3;;;21.5;;
41229;SDS011;26964;50.428;19.218;2023-04-01T04:15:34;28.5;;;21.7;;
41229;SDS011;26964;50.428;19.218;2023-04-01T04:16:34;25.4;;;18.9;;
41229;SDS011;26964;50.428;19.218;2023-04-01T04:17:34;27.8;;;19.4;;
41229;SDS011;26964;50.428;19.218;2023-04-01T04:18:34;26.3;;;19.6;;
41229;SDS011;26964;50.428;19.218;2023-04-01T04:19:34;31.3;;;19.3;;
41229;SDS011;26964;50.428;19.218;2023-04-01T04:20:34;28.1;;;18.8;;
41229;SDS011;26964;50.428;19.218;2023-04-01T04:21:34;26.4;;;18.7;;
41229;SDS011;26964;50.428;19.218;2023-04-01T04:22:34;27.6;;;18.0;;
41229;SDS011;26964;50.428;19.218;2023-04-01T04:23:34;24.6;;;17.8;;
41229;SDS011;26964;50.428;19.218;2023-04-01T04:24:34;27.1;;;18.4;;
41229;SDS011;26964;50.428;19.218;2023-04-01T04:25:35;26.7;;;18.3;;
41229;SDS011;26964;50.428;19.218;2023-04-01T04:26:34;23.3;;;17.4;;
41229;SDS011;26964;50.428;19.218;2023-04-01T04:27:34;27.7;;;18.1;;
41229;SDS011;26964;50.428;19.218;2023-04-01T04:28:34;27.3;;;18.3;;
41229;SDS011;26964;50.428;19.218;2023-04-01T04:29:34;25.3;;;18.1;;
41229;SDS011;26964;50.428;19.218;2023-04-01T04:30:34;30.3;;;17.9;;
41229;SDS011;26964;50.428;19.218;2023-04-01T04:31:34;25.3;;;18.7;;
41229;SDS011;26964;50.428;19.218;2023-04-01T04:32:34;27.2;;;17.8;;
41229;SDS011;26964;50.428;19.218;2023-04-01T04:33:34;27.8;;;17.5;;
41229;SDS011;26964;50.428;19.218;2023-04-01T04:34:34;24.6;;;16.3;;
41229;SDS011;26964;50.428;19.218;2023-04-01T04:35:34;27.1;;;17.2;;
41229;SDS011;26964;50.428;19.218;2023-04-01T04:36:34;25.5;;;18.1;;
41229;SDS011;26964;50.428;19.218;2023-04-01T04:37:34;25.5;;;18.2;;
41229;SDS011;26964;50.428;19.218;2023-04-01T04:38:34;28.0;;;18.7;;
41229;SDS011;26964;50.428;19.218;2023-04-01T04:39:34;23.6;;;17.3;;
41229;SDS011;26964;50.428;19.218;2023-04-01T04:40:35;21.9;;;17.2;;
41229;SDS011;26964;50.428;19.218;2023-04-01T04:41:36;25.4;;;17.5;;
41229;SDS011;26964;50.428;19.218;2023-04-01T04:42:34;27.3;;;17.1;;
41229;SDS011;26964;50.428;19.218;2023-04-01T04:43:34;26.0;;;17.7;;
41229;SDS011;26964;50.428;19.218;2023-04-01T04:44:34;24.3;;;16.3;;
41229;SDS011;26964;50.428;19.218;2023-04-01T04:45:34;27.5;;;17.8;;
41229;SDS011;26964;50.428;19.218;2023-04-01T04:46:34;26.1;;;18.6;;
41229;SDS011;26964;50.428;19.218;2023-04-01T04:47:34;24.6;;;18.2;;
41229;SDS011;26964;50.428;19.218;2023-04-01T04:48:34;26.0;;;18.3;;
41229;SDS011;26964;50.428;19.218;2023-04-01T04:49:34;29.4;;;19.3;;
41229;SDS011;26964;50.428;19.218;2023-04-01T04:50:34;28.8;;;20.2;;
41229;SDS011;26964;50.428;19.218;2023-04-01T04:51:34;26.2;;;19.0;;
41229;SDS011;26964;50.428;19.218;2023-04-01T04:52:34;33.1;;;20.1;;
41229;SDS011;26964;50.428;19.218;2023-04-01T04:53:34;33.6;;;20.9;;
41229;SDS011;26964;50.428;19.218;2023-04-01T04:54:34;29.9;;;20.9;;
41229;SDS011;26964;50.428;19.218;2023-04-01T04:55:34;29.6;;;20.4;;
41229;SDS011;26964;50.428;19.218;2023-04-01T04:56:34;31.0;;;21.1;;
41229;SDS011;26964;50.428;19.218;2023-04-01T04:57:34;26.7;;;20.3;;
41229;SDS011;26964;50.428;19.218;2023-04-01T04:58:34;30.4;;;21.4;;
41229;SDS011;26964;50.428;19.218;2023-04-01T04:59:34;30.4;;;21.5;;
41229;SDS011;26964;50.428;19.218;2023-04-01T05:00:34;33.5;;;22.8;;
41229;SDS011;26964;50.428;19.218;2023-04-01T05:01:34;26.4;;;20.2;;
41229;SDS011;26964;50.428;19.218;2023-04-01T05:02:34;30.6;;;22.9;;
41229;SDS011;26964;50.428;19.218;2023-04-01T05:03:34;29.6;;;21.4;;
41229;SDS011;26964;50.428;19.218;2023-04-01T05:04:34;28.2;;;21.3;;
41229;SDS011;26964;50.428;19.218;2023-04-01T05:05:34;30.9;;;22.1;;
41229;SDS011;26964;50.428;19.218;2023-04-01T05:06:34;27.3;;;20.9;;
41229;SDS011;26964;50.428;19.218;2023-04-01T05:07:34;28.4;;;21.0;;
41229;SDS011;26964;50.428;19.218;2023-04-01T05:08:34;31.3;;;21.6;;
41229;SDS011;26964;50.428;19.218;2023-04-01T05:09:34;28.0;;;21.1;;
41229;SDS011;26964;50.428;19.218;2023-04-01T05:10:34;28.9;;;22.2;;
41229;SDS011;26964;50.428;19.218;2023-04-01T05:11:34;32.8;;;22.2;;
41229;SDS011;26964;50.428;19.218;2023-04-01T05:12:34;30.1;;;21.7;;
41229;SDS011;26964;50.428;19.218;2023-04-01T05:13:34;28.5;;;20.8;;
41229;SDS011;26964;50.428;19.218;2023-04-01T05:14:34;28.0;;;19.9;;
41229;SDS011;26964;50.428;19.218;2023-04-01T05:15:34;26.2;;;20.8;;
41229;SDS011;26964;50.428;19.218;2023-04-01T05:16:34;28.2;;;19.9;;
41229;SDS011;26964;50.428;19.218;2023-04-01T05:17:34;29.8;;;19.8;;
41229;SDS011;26964;50.428;19.218;2023-04-01T05:18:45;26.6;;;18.4;;
41229;SDS011;26964;50.428;19.218;2023-04-01T05:19:34;28.7;;;19.0;;
41229;SDS011;26964;50.428;19.218;2023-04-01T05:20:34;24.8;;;18.4;;
41229;SDS011;26964;50.428;19.218;2023-04-01T05:21:34;25.8;;;20.2;;
41229;SDS011;26964;50.428;19.218;2023-04-01T05:22:34;29.9;;;20.7;;
41229;SDS011;26964;50.428;19.218;2023-04-01T05:23:34;28.1;;;19.0;;
41229;SDS011;26964;50.428;19.218;2023-04-01T05:24:34;25.5;;;19.1;;
41229;SDS011;26964;50.428;19.218;2023-04-01T05:26:34;24.7;;;17.8;;
41229;SDS011;26964;50.428;19.218;2023-04-01T05:27:34;23.7;;;17.1;;
41229;SDS011;26964;50.428;19.218;2023-04-01T05:28:34;24.9;;;15.1;;
41229;SDS011;26964;50.428;19.218;2023-04-01T05:29:34;22.2;;;14.4;;
41229;SDS011;26964;50.428;19.218;2023-04-01T05:30:34;20.6;;;14.6;;
41229;SDS011;26964;50.428;19.218;2023-04-01T05:31:34;20.4;;;14.1;;
41229;SDS011;26964;50.428;19.218;2023-04-01T05:32:34;19.8;;;14.8;;
41229;SDS011;26964;50.428;19.218;2023-04-01T05:33:34;21.2;;;13.9;;
41229;SDS011;26964;50.428;19.218;2023-04-01T05:34:34;19.5;;;13.4;;
41229;SDS011;26964;50.428;19.218;2023-04-01T05:35:34;20.1;;;14.1;;
41229;SDS011;26964;50.428;19.218;2023-04-01T05:36:34;18.0;;;13.1;;
41229;SDS011;26964;50.428;19.218;2023-04-01T05:37:34;17.2;;;12.4;;
41229;SDS011;26964;50.428;19.218;2023-04-01T05:38:34;20.7;;;13.7;;
41229;SDS011;26964;50.428;19.218;2023-04-01T05:39:35;22.1;;;14.4;;
41229;SDS011;26964;50.428;19.218;2023-04-01T05:40:34;19.9;;;13.1;;
41229;SDS011;26964;50.428;19.218;2023-04-01T05:41:34;20.2;;;13.3;;
41229;SDS011;26964;50.428;19.218;2023-04-01T05:42:34;24.0;;;15.1;;
41229;SDS011;26964;50.428;19.218;2023-04-01T05:43:35;21.0;;;13.5;;
41229;SDS011;26964;50.428;19.218;2023-04-01T05:44:34;22.0;;;14.0;;
41229;SDS011;26964;50.428;19.218;2023-04-01T05:45:34;19.5;;;14.4;;
41229;SDS011;26964;50.428;19.218;2023-04-01T05:46:34;21.3;;;14.0;;
41229;SDS011;26964;50.428;19.218;2023-04-01T05:47:34;20.6;;;13.5;;
41229;SDS011;26964;50.428;19.218;2023-04-01T05:48:34;18.4;;;13.2;;
41229;SDS011;26964;50.428;19.218;2023-04-01T05:49:34;21.6;;;13.8;;
41229;SDS011;26964;50.428;19.218;2023-04-01T05:50:34;21.6;;;12.9;;
41229;SDS011;26964;50.428;19.218;2023-04-01T05:51:34;19.1;;;13.9;;
41229;SDS011;26964;50.428;19.218;2023-04-01T05:52:34;26.4;;;17.3;;
41229;SDS011;26964;50.428;19.218;2023-04-01T05:53:34;21.4;;;14.5;;
41229;SDS011;26964;50.428;19.218;2023-04-01T05:54:34;19.6;;;13.0;;
41229;SDS011;26964;50.428;19.218;2023-04-01T05:55:34;19.4;;;12.5;;
41229;SDS011;26964;50.428;19.218;2023-04-01T05:56:34;15.5;;;11.3;;
41229;SDS011;26964;50.428;19.218;2023-04-01T05:57:34;19.3;;;12.5;;
41229;SDS011;26964;50.428;19.218;2023-04-01T05:58:34;18.8;;;12.8;;
41229;SDS011;26964;50.428;19.218;2023-04-01T05:59:34;17.5;;;12.9;;
41229;SDS011;26964;50.428;19.218;2023-04-01T06:00:34;18.4;;;11.4;;
41229;SDS011;26964;50.428;19.218;2023-04-01T06:01:34;18.9;;;12.5;;
41229;SDS011;26964;50.428;19.218;2023-04-01T06:02:34;19.4;;;13.4;;
41229;SDS011;26964;50.428;19.218;2023-04-01T06:03:34;19.9;;;13.0;;
41229;SDS011;26964;50.428;19.218;2023-04-01T06:04:34;19.1;;;12.9;;
41229;SDS011;26964;50.428;19.218;2023-04-01T06:06:34;17.8;;;11.7;;
41229;SDS011;26964;50.428;19.218;2023-04-01T06:07:34;18.9;;;12.9;;
41229;SDS011;26964;50.428;19.218;2023-04-01T06:08:34;18.3;;;11.3;;
41229;SDS011;26964;50.428;19.218;2023-04-01T06:09:34;17.6;;;11.5;;
41229;SDS011;26964;50.428;19.218;2023-04-01T06:10:36;17.9;;;11.3;;
41229;SDS011;26964;50.428;19.218;2023-04-01T06:11:34;18.0;;;11.1;;
41229;SDS011;26964;50.428;19.218;2023-04-01T06:14:36;17.9;;;10.7;;
41229;SDS011;26964;50.428;19.218;2023-04-01T06:15:36;18.1;;;10.2;;
41229;SDS011;26964;50.428;19.218;2023-04-01T06:16:37;19.3;;;11.3;;